Terminal Aerodrome Forecast
Issued by NWS

Home | Current Version | Previous Version | Text Only | Print | Product List | Glossary Off
Versions: 1 2 3 4 5 6 7 8 9 10 11 12

645
FTUS43 KICT 191123 AAA
TAFRSL
TAF AMD
KRSL 191123Z 1911/2006 19011KT P6SM SCT120
     FM191800 19016G24KT P6SM SKC
     FM200100 17011KT P6SM SKC=

USA.gov is the U.S. government's official web portal to all federal, state and local government web resources and services.